createdAt,value
2022-09-23T00:01:58.385Z,11.82
2022-09-23T00:06:56.644Z,14.13
2022-09-23T00:09:26.080Z,11.80
2022-09-23T00:11:55.523Z,14.93
2022-09-23T00:14:26.098Z,16.75
2022-09-23T00:16:55.574Z,14.57
2022-09-23T00:19:24.851Z,10.77
2022-09-23T00:21:54.009Z,11.30
2022-09-23T00:24:23.723Z,12.67
2022-09-23T00:26:52.902Z,10.30
2022-09-23T00:29:23.655Z,10.07
2022-09-23T00:31:54.470Z,11.85
2022-09-23T00:34:23.657Z,8.15
2022-09-23T00:36:52.827Z,11.57
2022-09-23T00:39:22.241Z,9.70
2022-09-23T00:41:51.732Z,8.77
2022-09-23T00:44:47.089Z,10.05
2022-09-23T00:47:22.877Z,9.35
2022-09-23T00:50:00.279Z,11.05
2022-09-23T00:52:31.688Z,9.30
2022-09-23T00:55:06.364Z,8.60
2022-09-23T00:57:37.190Z,8.05
2022-09-23T01:00:08.081Z,6.95
2022-09-23T01:02:39.562Z,7.40
2022-09-23T01:05:10.310Z,9.30
2022-09-23T01:07:39.871Z,8.73
2022-09-23T01:10:11.944Z,10.10
2022-09-23T01:13:09.571Z,9.00
2022-09-23T01:15:47.851Z,9.13
2022-09-23T01:18:31.227Z,9.50
2022-09-23T01:21:16.708Z,9.65
2022-09-23T01:24:16.855Z,16.13
2022-09-23T01:27:02.217Z,12.38
2022-09-23T01:30:04.113Z,9.35
2022-09-23T01:32:58.488Z,8.68
2022-09-23T01:35:38.599Z,10.93
2022-09-23T01:38:21.338Z,8.98
2022-09-23T01:40:56.004Z,9.88
2022-09-23T01:43:32.420Z,11.98
2022-09-23T01:46:08.404Z,9.68
2022-09-23T01:48:46.514Z,9.15
2022-09-23T01:51:22.243Z,8.45
2022-09-23T01:53:56.411Z,5.97
2022-09-23T01:56:29.634Z,7.45
2022-09-23T01:59:03.560Z,4.60
2022-09-23T02:01:39.324Z,6.38
2022-09-23T02:04:17.495Z,6.68
2022-09-23T02:06:51.124Z,7.22
2022-09-23T02:09:25.883Z,10.27
2022-09-23T02:12:04.948Z,7.72
2022-09-23T02:14:39.939Z,6.70
2022-09-23T02:17:13.134Z,6.00
2022-09-23T02:19:48.134Z,9.73
2022-09-23T02:22:21.957Z,5.80
2022-09-23T02:24:51.377Z,6.63
2022-09-23T02:27:27.054Z,7.13
2022-09-23T02:30:04.465Z,6.78
2022-09-23T02:32:42.152Z,6.65
2022-09-23T02:35:22.660Z,6.80
2022-09-23T02:37:59.347Z,6.25
2022-09-23T02:40:34.783Z,5.28
2022-09-23T02:43:08.955Z,7.15
2022-09-23T02:45:39.236Z,8.18
2022-09-23T02:48:13.707Z,7.40
2022-09-23T02:50:44.795Z,5.75
2022-09-23T02:53:15.789Z,6.32
2022-09-23T02:55:45.740Z,5.40
2022-09-23T02:58:15.546Z,6.85
2022-09-23T03:00:57.191Z,5.68
2022-09-23T03:03:40.451Z,6.78
2022-09-23T03:06:27.771Z,8.68
2022-09-23T03:09:03.674Z,7.55
2022-09-23T03:11:35.451Z,6.05
2022-09-23T03:14:17.595Z,5.93
2022-09-23T03:16:55.903Z,6.45
2022-09-23T03:19:32.967Z,4.30
2022-09-23T03:22:09.671Z,7.90
2022-09-23T03:24:42.917Z,7.05
2022-09-23T03:27:17.885Z,4.47
2022-09-23T03:29:49.680Z,7.78
2022-09-23T03:32:21.893Z,5.68
2022-09-23T03:34:53.474Z,6.35
2022-09-23T03:37:31.366Z,6.60
2022-09-23T03:40:09.974Z,4.85
2022-09-23T03:42:40.489Z,4.93
2022-09-23T03:47:42.511Z,5.22
2022-09-23T03:50:13.401Z,10.48
2022-09-23T03:52:44.713Z,6.10
2022-09-23T03:55:14.129Z,7.10
2022-09-23T03:57:43.399Z,4.97
2022-09-23T04:00:14.739Z,4.80
2022-09-23T04:02:44.328Z,4.95
2022-09-23T04:05:14.524Z,4.47
2022-09-23T04:07:45.403Z,8.35
2022-09-23T04:10:15.510Z,9.93
2022-09-23T04:12:44.676Z,8.23
2022-09-23T04:15:13.860Z,9.13
2022-09-23T04:17:43.217Z,5.30
2022-09-23T04:20:12.387Z,4.68
2022-09-23T04:22:41.565Z,6.57
2022-09-23T04:25:12.601Z,5.90
2022-09-23T04:27:41.772Z,6.82
2022-09-23T04:30:12.123Z,4.75
2022-09-23T04:32:41.658Z,5.82
2022-09-23T04:35:10.962Z,7.03
2022-09-23T04:37:40.135Z,4.67
2022-09-23T04:40:12.237Z,8.20
2022-09-23T04:42:41.545Z,4.95
2022-09-23T04:45:11.728Z,4.82
2022-09-23T04:47:40.888Z,3.38
2022-09-23T04:50:10.541Z,4.90
2022-09-23T04:52:39.900Z,5.30
2022-09-23T04:55:11.349Z,5.53
2022-09-23T04:57:44.853Z,4.72
2022-09-23T05:00:15.325Z,5.95
2022-09-23T05:02:45.460Z,3.30
2022-09-23T05:05:15.778Z,4.55
2022-09-23T05:07:45.175Z,3.30
2022-09-23T05:10:14.436Z,2.92
2022-09-23T05:12:45.142Z,3.47
2022-09-23T05:15:15.220Z,3.50
2022-09-23T05:17:44.750Z,3.25
2022-09-23T05:20:13.893Z,3.38
2022-09-23T05:22:43.264Z,4.60
2022-09-23T05:25:12.427Z,4.68
2022-09-23T05:27:42.317Z,5.28
2022-09-23T05:30:13.887Z,5.10
2022-09-23T05:32:43.059Z,7.03
2022-09-23T05:35:12.622Z,9.73
2022-09-23T05:37:41.789Z,6.13
2022-09-23T05:40:11.513Z,11.95
2022-09-23T05:42:41.290Z,7.03
2022-09-23T05:45:12.591Z,11.93
2022-09-23T05:47:41.972Z,6.05
2022-09-23T05:50:11.642Z,5.78
2022-09-23T05:52:40.887Z,4.82
2022-09-23T05:55:11.750Z,2.70
2022-09-23T05:57:40.951Z,3.80
2022-09-23T06:00:13.115Z,9.30
2022-09-23T06:02:42.644Z,4.07
2022-09-23T06:05:12.440Z,7.70
2022-09-23T06:07:41.625Z,6.97
2022-09-23T06:10:11.427Z,6.13
2022-09-23T06:12:42.458Z,4.30
2022-09-23T06:15:13.526Z,2.95
2022-09-23T06:17:42.729Z,5.15
2022-09-23T06:20:12.300Z,3.10
2022-09-23T06:22:41.719Z,3.67
2022-09-23T06:25:12.307Z,4.38
2022-09-23T06:27:41.658Z,5.13
2022-09-23T06:30:13.715Z,7.20
2022-09-23T06:32:42.916Z,5.63
2022-09-23T06:35:23.986Z,11.70
2022-09-23T06:37:55.525Z,6.40
2022-09-23T06:40:25.051Z,3.85
2022-09-23T06:42:59.978Z,2.57
2022-09-23T06:45:31.284Z,3.63
2022-09-23T06:48:01.103Z,3.38
2022-09-23T06:50:31.011Z,3.15
2022-09-23T06:53:00.266Z,3.30
2022-09-23T06:55:29.613Z,2.20
2022-09-23T06:58:00.165Z,5.53
2022-09-23T07:03:00.136Z,3.90
2022-09-23T07:05:29.440Z,7.88
2022-09-23T07:07:59.669Z,2.85
2022-09-23T07:10:29.276Z,2.30
2022-09-23T07:13:02.226Z,3.00
2022-09-23T07:15:34.037Z,3.30
2022-09-23T07:18:03.306Z,2.72
2022-09-23T07:20:32.701Z,2.78
2022-09-23T07:23:01.880Z,2.33
2022-09-23T07:25:34.175Z,4.75
2022-09-23T07:28:03.803Z,2.65
2022-09-23T07:30:37.140Z,5.03
2022-09-23T07:33:23.717Z,5.15
2022-09-23T07:35:56.743Z,4.22
2022-09-23T07:38:30.164Z,4.63
2022-09-23T07:41:04.385Z,2.80
2022-09-23T07:43:34.317Z,2.05
2022-09-23T07:46:09.906Z,3.45
2022-09-23T07:48:40.109Z,2.78
2022-09-23T07:51:10.416Z,4.88
2022-09-23T07:56:08.705Z,1.98
2022-09-23T07:58:37.886Z,2.20
2022-09-23T08:01:10.803Z,4.10
2022-09-23T08:03:40.927Z,4.18
2022-09-23T08:08:43.758Z,2.72
2022-09-23T08:11:14.673Z,3.63
2022-09-23T08:13:44.344Z,2.88
2022-09-23T08:16:15.015Z,3.05
2022-09-23T08:18:46.642Z,2.22
2022-09-23T08:21:21.439Z,2.80
2022-09-23T08:23:51.788Z,4.95
2022-09-23T08:26:22.435Z,11.80
2022-09-23T08:28:55.130Z,5.03
2022-09-23T08:31:25.917Z,2.67
2022-09-23T08:33:59.972Z,5.68
2022-09-23T08:36:29.288Z,3.95
2022-09-23T08:38:58.630Z,2.22
2022-09-23T08:41:37.270Z,1.40
2022-09-23T08:44:13.862Z,3.38
2022-09-23T08:46:47.988Z,2.45
2022-09-23T08:49:25.402Z,3.78
2022-09-23T08:51:56.088Z,3.92
2022-09-23T08:54:30.866Z,3.05
2022-09-23T08:57:03.577Z,2.13
2022-09-23T08:59:41.674Z,2.47
2022-09-23T09:02:19.370Z,3.15
2022-09-23T09:04:54.052Z,4.40
2022-09-23T09:07:36.570Z,3.40
2022-09-23T09:10:16.470Z,2.05
2022-09-23T09:12:48.156Z,3.25
2022-09-23T09:15:20.641Z,2.53
2022-09-23T09:18:01.327Z,3.97
2022-09-23T09:20:40.127Z,3.13
2022-09-23T09:23:22.658Z,2.15
2022-09-23T09:25:54.170Z,1.80
2022-09-23T09:28:31.044Z,1.58
2022-09-23T09:31:03.930Z,2.03
2022-09-23T09:33:44.850Z,1.38
2022-09-23T09:36:27.038Z,3.10
2022-09-23T09:38:58.595Z,1.38
2022-09-23T09:41:31.312Z,1.38
2022-09-23T09:44:03.905Z,1.13
2022-09-23T09:46:54.660Z,3.78
2022-09-23T09:49:38.097Z,2.42
2022-09-23T09:52:22.559Z,3.25
2022-09-23T09:54:52.539Z,6.43
2022-09-23T10:00:38.234Z,2.10
2022-09-23T10:03:26.532Z,3.55
2022-09-23T10:05:57.741Z,3.42
2022-09-23T10:08:32.194Z,5.55
2022-09-23T10:11:07.631Z,1.80
2022-09-23T10:13:38.101Z,3.28
2022-09-23T10:16:08.769Z,2.13
2022-09-23T10:18:40.283Z,2.53
2022-09-23T10:21:14.376Z,1.13
2022-09-23T10:23:45.991Z,1.52
2022-09-23T10:26:17.472Z,2.00
2022-09-23T10:28:50.526Z,1.13
2022-09-23T10:31:25.864Z,1.35
2022-09-23T10:33:57.394Z,3.72
2022-09-23T10:36:28.992Z,4.07
2022-09-23T10:39:20.795Z,3.03
2022-09-23T10:42:29.724Z,1.13
2022-09-23T10:45:38.483Z,1.48
2022-09-23T10:48:21.766Z,2.78
2022-09-23T10:50:53.682Z,2.05
2022-09-23T10:53:37.009Z,1.05
2022-09-23T10:56:31.898Z,1.10
2022-09-23T10:59:33.142Z,2.35
2022-09-23T11:02:16.628Z,1.98
2022-09-23T11:05:04.078Z,3.28
2022-09-23T11:07:40.210Z,2.13
2022-09-23T11:10:46.042Z,0.85
2022-09-23T11:13:31.203Z,1.77
2022-09-23T11:16:09.395Z,1.05
2022-09-23T11:19:02.114Z,1.15
2022-09-23T11:21:57.237Z,2.38
2022-09-23T11:24:52.150Z,2.10
2022-09-23T11:27:34.465Z,3.42
2022-09-23T11:30:15.920Z,1.35
2022-09-23T11:35:47.637Z,3.58
2022-09-23T11:38:26.096Z,1.83
2022-09-23T11:41:01.732Z,9.68
2022-09-23T11:43:39.918Z,5.57
2022-09-23T11:46:16.905Z,6.50
2022-09-23T11:48:50.200Z,2.38
2022-09-23T11:51:27.347Z,2.00
2022-09-23T11:54:01.907Z,0.90
2022-09-23T11:56:40.943Z,2.58
2022-09-23T11:59:37.549Z,1.70
2022-09-23T12:02:22.357Z,1.85
2022-09-23T12:05:01.396Z,4.20
2022-09-23T12:07:42.599Z,0.90
2022-09-23T12:10:13.539Z,3.72
2022-09-23T12:12:52.579Z,2.83
2022-09-23T12:15:46.349Z,1.10
2022-09-23T12:18:43.381Z,1.85
2022-09-23T12:21:50.394Z,0.85
2022-09-23T12:24:42.044Z,3.28
2022-09-23T12:27:23.049Z,1.77
2022-09-23T12:29:56.702Z,0.60
2022-09-23T12:32:27.783Z,1.17
2022-09-23T12:34:57.758Z,2.28
2022-09-23T12:37:30.171Z,0.98
2022-09-23T12:40:07.771Z,0.75
2022-09-23T12:42:41.856Z,1.02
2022-09-23T12:45:43.516Z,2.00
2022-09-23T12:48:49.213Z,0.52
2022-09-23T12:51:23.185Z,1.42
2022-09-23T12:54:23.561Z,5.70
2022-09-23T12:57:01.981Z,0.98
2022-09-23T12:59:49.963Z,1.52
2022-09-23T13:02:33.644Z,1.92
2022-09-23T13:05:36.093Z,2.17
2022-09-23T13:08:09.771Z,1.95
2022-09-23T13:10:45.818Z,5.85
2022-09-23T13:13:24.530Z,1.55
2022-09-23T13:15:55.057Z,1.35
2022-09-23T13:18:52.521Z,1.05
2022-09-23T13:21:58.030Z,1.67
2022-09-23T13:24:40.584Z,2.83
2022-09-23T13:27:36.006Z,0.60
2022-09-23T13:30:23.666Z,1.10
2022-09-23T13:33:06.346Z,2.90
2022-09-23T13:35:39.466Z,2.25
2022-09-23T13:38:19.587Z,1.55
2022-09-23T13:40:49.287Z,1.42
2022-09-23T13:43:24.497Z,1.95
2022-09-23T13:45:55.296Z,3.70
2022-09-23T13:48:27.174Z,2.50
2022-09-23T13:50:56.768Z,3.47
2022-09-23T13:53:29.590Z,3.13
2022-09-23T13:56:04.067Z,1.92
2022-09-23T13:58:35.725Z,1.50
2022-09-23T14:01:10.548Z,0.73
2022-09-23T14:03:40.847Z,1.40
2022-09-23T14:06:14.614Z,1.05
2022-09-23T14:08:48.763Z,1.48
2022-09-23T14:11:19.768Z,1.80
2022-09-23T14:13:51.703Z,2.65
2022-09-23T14:16:21.679Z,1.05
2022-09-23T14:18:52.965Z,1.63
2022-09-23T14:21:29.148Z,2.28
2022-09-23T14:24:13.919Z,1.83
2022-09-23T14:26:45.401Z,3.97
2022-09-23T14:29:18.099Z,1.73
2022-09-23T14:31:57.001Z,1.70
2022-09-23T14:34:44.000Z,2.08
2022-09-23T14:37:51.701Z,4.85
2022-09-23T14:40:25.970Z,1.00
2022-09-23T14:43:01.386Z,3.90
2022-09-23T14:45:37.661Z,1.67
2022-09-23T14:48:12.052Z,2.72
2022-09-23T14:50:49.272Z,1.70
2022-09-23T14:53:42.975Z,4.45
2022-09-23T14:56:20.384Z,3.05
2022-09-23T14:58:55.206Z,3.03
2022-09-23T15:01:38.071Z,7.00
2022-09-23T15:04:18.813Z,3.88
2022-09-23T15:06:55.575Z,2.10
2022-09-23T15:09:32.364Z,6.07
2022-09-23T15:12:07.633Z,2.10
2022-09-23T15:14:41.093Z,6.03
2022-09-23T15:17:32.635Z,3.42
2022-09-23T15:20:35.676Z,7.07
2022-09-23T15:27:38.845Z,5.43
2022-09-23T15:30:31.000Z,4.85
2022-09-23T15:33:01.437Z,6.90
2022-09-23T15:35:32.069Z,4.28
2022-09-23T15:38:03.351Z,3.28
2022-09-23T15:40:34.251Z,3.85
2022-09-23T15:43:20.532Z,4.10
2022-09-23T15:45:53.269Z,3.97
2022-09-23T15:48:25.265Z,4.45
2022-09-23T15:50:55.886Z,6.25
2022-09-23T15:53:27.840Z,4.80
2022-09-23T15:55:58.655Z,5.85
2022-09-23T15:58:29.600Z,5.00
2022-09-23T16:00:59.842Z,3.72
2022-09-23T16:03:29.561Z,5.13
2022-09-23T16:06:03.071Z,5.85
2022-09-23T16:08:33.201Z,4.80
2022-09-23T16:11:02.578Z,2.90
2022-09-23T16:13:33.179Z,6.32
2022-09-23T16:16:02.950Z,3.92
2022-09-23T16:18:32.403Z,3.92
2022-09-23T16:21:01.623Z,8.88
2022-09-23T16:23:38.812Z,11.85
2022-09-23T16:26:15.474Z,28.00
2022-09-23T16:28:47.617Z,35.65
2022-09-23T16:31:17.507Z,25.20
2022-09-23T16:33:48.641Z,25.15
2022-09-23T16:36:23.011Z,26.13
2022-09-23T16:38:55.310Z,21.65
2022-09-23T16:41:24.681Z,16.52
2022-09-23T16:43:56.343Z,17.05
2022-09-23T16:46:25.813Z,21.52
2022-09-23T16:48:57.668Z,26.35
2022-09-23T16:51:29.047Z,21.52
2022-09-23T16:54:00.104Z,18.90
2022-09-23T16:56:32.081Z,17.77
2022-09-23T16:59:02.989Z,18.02
2022-09-23T17:01:50.006Z,14.65
2022-09-23T17:04:22.122Z,17.60
2022-09-23T17:06:52.764Z,18.60
2022-09-23T17:09:25.714Z,22.45
2022-09-23T17:12:01.015Z,21.33
2022-09-23T17:14:34.325Z,24.65
2022-09-23T17:17:03.481Z,26.52
2022-09-23T17:19:34.115Z,27.50
2022-09-23T17:22:03.644Z,27.27
2022-09-23T17:24:32.818Z,25.50
2022-09-23T17:27:02.179Z,32.47
2022-09-23T17:29:32.826Z,22.35
2022-09-23T17:32:02.232Z,27.02
2022-09-23T17:34:33.497Z,22.73
2022-09-23T17:37:02.682Z,20.08
2022-09-23T17:39:31.839Z,19.70
2022-09-23T17:42:03.547Z,20.45
2022-09-23T17:44:35.389Z,20.38
2022-09-23T17:47:05.538Z,23.27
2022-09-23T17:49:35.482Z,26.52
2022-09-23T17:52:05.660Z,24.33
2022-09-23T17:54:36.384Z,23.95
2022-09-23T17:57:06.225Z,24.40
2022-09-23T17:59:37.070Z,24.45
2022-09-23T18:02:06.488Z,23.65
2022-09-23T18:04:35.719Z,25.45
2022-09-23T18:07:05.113Z,22.88
2022-09-23T18:09:34.331Z,21.45
2022-09-23T18:12:03.714Z,17.92
2022-09-23T18:14:33.080Z,17.17
2022-09-23T18:17:03.662Z,19.17
2022-09-23T18:19:32.810Z,23.60
2022-09-23T18:22:02.399Z,26.37
2022-09-23T18:24:33.648Z,26.90
2022-09-23T18:27:04.267Z,33.80
2022-09-23T18:29:35.377Z,41.05
2022-09-23T18:32:07.571Z,44.13
2022-09-23T18:34:38.261Z,47.83
2022-09-23T18:37:15.271Z,45.83
2022-09-23T18:39:45.817Z,50.80
2022-09-23T18:42:15.910Z,53.05
2022-09-23T18:44:45.212Z,51.53
2022-09-23T18:47:35.783Z,45.40
2022-09-23T18:50:23.180Z,42.78
2022-09-23T18:52:53.126Z,34.00
2022-09-23T18:57:52.613Z,28.38
2022-09-23T19:00:22.019Z,22.80
2022-09-23T19:02:53.820Z,22.20
2022-09-23T19:05:23.062Z,18.75
2022-09-23T19:07:53.565Z,20.98
2022-09-23T19:10:22.738Z,16.17
2022-09-23T19:12:51.993Z,17.33
2022-09-23T19:15:21.455Z,20.10
2022-09-23T19:17:54.716Z,21.27
2022-09-23T19:20:24.759Z,23.70
2022-09-23T19:22:54.194Z,23.85
2022-09-23T19:25:23.359Z,25.17
2022-09-23T19:27:53.864Z,17.83
2022-09-23T19:32:53.489Z,20.15
2022-09-23T19:35:23.539Z,17.75
2022-09-23T19:37:53.388Z,15.27
2022-09-23T19:40:23.110Z,15.35
2022-09-23T19:42:54.198Z,15.15
2022-09-23T19:45:23.801Z,13.13
2022-09-23T19:47:58.303Z,14.75
2022-09-23T19:50:27.998Z,15.23
2022-09-23T19:52:59.969Z,15.25
2022-09-23T19:55:29.467Z,20.10
2022-09-23T19:57:59.512Z,20.67
2022-09-23T20:00:29.042Z,24.42
2022-09-23T20:03:00.353Z,25.73
2022-09-23T20:05:29.840Z,25.35
2022-09-23T20:08:00.104Z,32.20
2022-09-23T20:12:59.644Z,35.33
2022-09-23T20:15:29.077Z,31.65
2022-09-23T20:17:59.716Z,28.80
2022-09-23T20:20:29.214Z,30.58
2022-09-23T20:22:58.887Z,26.67
2022-09-23T20:25:28.054Z,26.85
2022-09-23T20:27:57.047Z,27.57
2022-09-23T20:30:26.259Z,22.17
2022-09-23T20:32:55.680Z,20.88
2022-09-23T20:35:26.538Z,18.23
2022-09-23T20:37:55.862Z,20.83
2022-09-23T20:40:25.339Z,18.55
2022-09-23T20:42:55.231Z,16.05
2022-09-23T20:45:24.417Z,16.20
2022-09-23T20:47:53.828Z,12.07
2022-09-23T20:50:23.011Z,15.07
2022-09-23T20:52:56.489Z,15.73
2022-09-23T20:55:26.089Z,15.23
2022-09-23T20:57:55.315Z,17.30
2022-09-23T21:00:24.575Z,14.23
2022-09-23T21:02:54.032Z,17.73
2022-09-23T21:05:23.438Z,13.55
2022-09-23T21:07:54.175Z,15.15
2022-09-23T21:10:23.626Z,17.35
2022-09-23T21:12:52.846Z,17.73
2022-09-23T21:15:22.951Z,17.90
2022-09-23T21:17:52.370Z,34.90
2022-09-23T21:20:21.590Z,45.10
2022-09-23T21:22:53.201Z,43.72
2022-09-23T21:25:28.110Z,25.17
2022-09-23T21:27:58.949Z,23.38
2022-09-23T21:33:01.146Z,21.80
2022-09-23T21:35:31.247Z,17.98
2022-09-23T21:38:03.243Z,18.65
2022-09-23T21:40:50.132Z,19.55
2022-09-23T21:43:20.065Z,18.88
2022-09-23T21:45:49.606Z,17.10
2022-09-23T21:48:18.786Z,16.63
2022-09-23T21:50:56.824Z,14.88
2022-09-23T21:53:29.815Z,12.77
2022-09-23T21:56:07.350Z,16.88
2022-09-23T21:58:38.117Z,15.98
2022-09-23T22:01:10.574Z,14.13
2022-09-23T22:03:40.628Z,15.32
2022-09-23T22:06:12.595Z,14.38
2022-09-23T22:08:45.213Z,12.77
2022-09-23T22:11:30.930Z,16.75
2022-09-23T22:14:01.995Z,14.73
2022-09-23T22:16:31.743Z,14.55
2022-09-23T22:19:01.842Z,14.52
2022-09-23T22:24:03.804Z,14.13
2022-09-23T22:26:35.360Z,16.38
2022-09-23T22:29:22.958Z,18.98
2022-09-23T22:32:09.955Z,16.45
2022-09-23T22:34:50.523Z,16.13
2022-09-23T22:37:22.484Z,18.52
2022-09-23T22:39:53.320Z,15.70
2022-09-23T22:42:22.949Z,15.30
2022-09-23T22:44:52.951Z,14.43
2022-09-23T22:47:22.724Z,18.13
2022-09-23T22:49:55.490Z,14.32
2022-09-23T22:52:25.360Z,14.85
2022-09-23T22:54:56.199Z,14.95
2022-09-23T22:57:25.426Z,13.70
2022-09-23T22:59:54.692Z,14.18
2022-09-23T23:02:24.160Z,12.73
2022-09-23T23:04:53.446Z,13.48
2022-09-23T23:07:23.369Z,10.73
2022-09-23T23:09:53.873Z,11.32
2022-09-23T23:14:53.715Z,8.80
2022-09-23T23:17:22.906Z,8.10
2022-09-23T23:19:52.287Z,8.67
2022-09-23T23:22:21.709Z,11.03
2022-09-23T23:24:54.628Z,8.53
2022-09-23T23:27:25.583Z,7.32
2022-09-23T23:29:54.832Z,10.45
2022-09-23T23:32:24.282Z,11.65
2022-09-23T23:34:53.517Z,9.48
2022-09-23T23:37:22.868Z,8.48
2022-09-23T23:39:52.333Z,17.35
2022-09-23T23:42:21.551Z,25.95
2022-09-23T23:44:52.135Z,15.07
2022-09-23T23:47:22.252Z,15.02
2022-09-23T23:49:51.567Z,12.48
2022-09-23T23:52:20.794Z,9.23
2022-09-23T23:54:51.679Z,7.67
2022-09-23T23:57:20.905Z,7.68
2022-09-23T23:59:51.511Z,8.43
